createdAt,value
2023-05-02T00:04:35.825Z,14.50
2023-05-02T00:09:42.790Z,14.40
2023-05-02T00:14:49.334Z,14.30
2023-05-02T00:19:55.007Z,14.40
2023-05-02T00:25:00.901Z,14.20
2023-05-02T00:30:08.473Z,14.20
2023-05-02T00:35:14.767Z,14.20
2023-05-02T00:40:20.741Z,14.10
2023-05-02T00:45:26.989Z,14.10
2023-05-02T00:50:35.296Z,14.00
2023-05-02T00:55:41.544Z,14.10
2023-05-02T01:01:22.308Z,14.10
2023-05-02T01:06:45.953Z,14.10
2023-05-02T01:12:06.299Z,14.10
2023-05-02T01:17:15.130Z,14.00
2023-05-02T01:22:21.364Z,14.10
2023-05-02T01:27:46.263Z,14.00
2023-05-02T01:32:53.695Z,14.00
2023-05-02T01:38:00.396Z,13.90
2023-05-02T01:43:07.670Z,13.80
2023-05-02T01:48:15.779Z,13.60
2023-05-02T01:53:25.182Z,13.50
2023-05-02T01:58:32.486Z,13.60
2023-05-02T02:03:39.166Z,13.50
2023-05-02T02:08:45.497Z,13.40
2023-05-02T02:13:54.313Z,13.40
2023-05-02T02:19:02.917Z,13.20
2023-05-02T02:24:08.796Z,13.20
2023-05-02T02:29:14.419Z,13.10
2023-05-02T02:34:20.708Z,12.90
2023-05-02T02:40:01.497Z,12.50
2023-05-02T02:45:14.280Z,12.40
2023-05-02T02:50:41.085Z,12.40
2023-05-02T02:55:58.942Z,12.20
2023-05-02T03:01:06.741Z,12.00
2023-05-02T03:06:13.631Z,12.20
2023-05-02T03:11:19.617Z,12.40
2023-05-02T03:16:33.792Z,12.40
2023-05-02T03:21:40.424Z,12.20
2023-05-02T03:26:48.569Z,12.00
2023-05-02T03:31:54.527Z,11.60
2023-05-02T03:37:00.688Z,11.80
2023-05-02T03:42:07.561Z,11.80
2023-05-02T03:47:14.277Z,11.60
2023-05-02T03:52:20.321Z,11.50
2023-05-02T03:57:26.444Z,11.60
2023-05-02T04:02:33.401Z,11.70
2023-05-02T04:07:39.240Z,11.40
2023-05-02T04:12:45.781Z,11.40
2023-05-02T04:17:51.540Z,11.40
2023-05-02T04:22:57.137Z,11.40
2023-05-02T04:28:03.853Z,11.20
2023-05-02T04:33:09.851Z,11.30
2023-05-02T04:38:15.842Z,11.60
2023-05-02T04:43:24.339Z,11.60
2023-05-02T04:48:29.940Z,11.60
2023-05-02T04:53:36.748Z,11.70
2023-05-02T04:58:42.334Z,11.60
2023-05-02T05:03:48.055Z,11.50
2023-05-02T05:08:53.687Z,11.60
2023-05-02T05:14:00.951Z,11.80
2023-05-02T05:19:07.241Z,12.00
2023-05-02T05:24:12.847Z,12.20
2023-05-02T05:29:19.113Z,12.20
2023-05-02T05:34:26.418Z,12.30
2023-05-02T05:39:32.883Z,12.40
2023-05-02T05:44:39.922Z,12.70
2023-05-02T05:49:45.831Z,12.70
2023-05-02T05:54:53.252Z,12.80
2023-05-02T05:59:59.096Z,13.00
2023-05-02T06:05:05.607Z,12.90
2023-05-02T06:10:11.748Z,13.20
2023-05-02T06:15:18.667Z,13.00
2023-05-02T06:20:24.403Z,13.40
2023-05-02T06:25:31.050Z,13.70
2023-05-02T06:30:36.958Z,14.10
2023-05-02T06:35:42.942Z,14.40
2023-05-02T06:40:48.695Z,14.60
2023-05-02T06:45:56.426Z,15.10
2023-05-02T06:51:03.625Z,15.60
2023-05-02T06:56:09.504Z,15.60
2023-05-02T07:01:20.787Z,16.10
2023-05-02T07:06:27.166Z,16.20
2023-05-02T07:11:34.566Z,16.40
2023-05-02T07:16:40.195Z,15.90
2023-05-02T07:21:47.613Z,15.90
2023-05-02T07:26:53.897Z,15.60
2023-05-02T07:32:05.423Z,15.90
2023-05-02T07:37:11.806Z,15.70
2023-05-02T07:42:18.809Z,15.60
2023-05-02T07:47:24.450Z,15.80
2023-05-02T07:52:29.857Z,16.10
2023-05-02T07:57:35.949Z,15.80
2023-05-02T08:02:43.281Z,16.00
2023-05-02T08:07:49.117Z,16.10
2023-05-02T08:12:54.714Z,16.30
2023-05-02T08:18:00.856Z,15.70
2023-05-02T08:23:07.295Z,16.20
2023-05-02T08:28:13.416Z,16.70
2023-05-02T08:33:20.016Z,16.90
2023-05-02T08:38:26.099Z,16.60
2023-05-02T08:43:33.061Z,16.70
2023-05-02T08:48:40.629Z,16.90
2023-05-02T08:53:46.783Z,16.80
2023-05-02T08:58:52.433Z,16.90
2023-05-02T09:03:59.882Z,16.90
2023-05-02T09:09:06.055Z,17.10
2023-05-02T09:14:17.797Z,17.00
2023-05-02T09:19:28.178Z,17.10
2023-05-02T09:24:34.318Z,17.40
2023-05-02T09:29:41.126Z,17.50
2023-05-02T09:35:08.183Z,17.90
2023-05-02T09:40:15.949Z,17.90
2023-05-02T09:45:23.409Z,17.80
2023-05-02T09:50:37.100Z,17.60
2023-05-02T09:55:43.252Z,18.20
2023-05-02T10:00:49.418Z,18.40
2023-05-02T10:05:55.898Z,17.80
2023-05-02T10:11:02.076Z,17.20
2023-05-02T10:16:08.539Z,17.00
2023-05-02T10:21:22.934Z,17.70
2023-05-02T10:26:29.190Z,17.60
2023-05-02T10:31:38.165Z,17.50
2023-05-02T10:36:44.476Z,17.20
2023-05-02T10:41:53.647Z,17.30
2023-05-02T10:46:59.522Z,17.10
2023-05-02T10:52:09.953Z,16.80
2023-05-02T10:57:16.085Z,16.80
2023-05-02T11:02:28.591Z,16.80
2023-05-02T11:07:36.599Z,17.00
2023-05-02T11:12:53.912Z,17.50
2023-05-02T11:18:18.651Z,17.30
2023-05-02T11:23:27.297Z,17.40
2023-05-02T11:28:42.596Z,17.50
2023-05-02T11:33:51.757Z,17.00
2023-05-02T11:38:57.262Z,17.10
2023-05-02T11:44:04.351Z,17.30
2023-05-02T11:49:12.719Z,17.30
2023-05-02T11:54:22.939Z,17.40
2023-05-02T11:59:28.440Z,17.20
2023-05-02T12:04:34.835Z,17.00
2023-05-02T12:09:54.435Z,16.70
2023-05-02T12:15:00.762Z,17.10
2023-05-02T12:20:08.524Z,17.20
2023-05-02T12:25:15.539Z,17.10
2023-05-02T12:30:28.811Z,17.70
2023-05-02T12:35:36.055Z,17.00
2023-05-02T12:40:50.806Z,16.90
2023-05-02T12:46:12.272Z,17.30
2023-05-02T12:51:25.305Z,17.40
2023-05-02T12:56:35.360Z,17.20
2023-05-02T13:01:42.215Z,17.10
2023-05-02T13:06:47.840Z,17.50
2023-05-02T13:11:55.238Z,17.40
2023-05-02T13:17:00.998Z,17.60
2023-05-02T13:22:09.858Z,17.40
2023-05-02T13:27:16.503Z,17.50
2023-05-02T13:32:22.847Z,17.10
2023-05-02T13:37:28.449Z,17.00
2023-05-02T13:42:34.769Z,17.20
2023-05-02T13:47:41.502Z,17.00
2023-05-02T13:52:49.402Z,17.10
2023-05-02T13:57:55.076Z,17.30
2023-05-02T14:03:00.779Z,16.80
2023-05-02T14:08:08.485Z,16.60
2023-05-02T14:13:14.578Z,16.60
2023-05-02T14:18:20.108Z,16.60
2023-05-02T14:23:26.265Z,16.70
2023-05-02T14:28:31.658Z,16.50
2023-05-02T14:33:37.691Z,16.80
2023-05-02T14:38:46.271Z,16.60
2023-05-02T14:43:53.679Z,16.40
2023-05-02T14:48:59.823Z,16.30
2023-05-02T14:54:08.227Z,16.30
2023-05-02T14:59:15.611Z,16.40
2023-05-02T15:04:21.783Z,16.30
2023-05-02T15:09:27.495Z,16.50
2023-05-02T15:14:34.626Z,16.50
2023-05-02T15:19:40.332Z,16.40
2023-05-02T15:24:45.892Z,16.50
2023-05-02T15:29:51.661Z,16.70
2023-05-02T15:34:57.411Z,16.20
2023-05-02T15:40:04.751Z,16.50
2023-05-02T15:45:13.714Z,16.10
2023-05-02T15:50:19.497Z,16.00
2023-05-02T15:55:25.530Z,15.80
2023-05-02T16:00:30.992Z,15.70
2023-05-02T16:05:37.747Z,15.80
2023-05-02T16:10:43.847Z,15.60
2023-05-02T16:15:49.396Z,15.50
2023-05-02T16:20:56.745Z,15.20
2023-05-02T16:26:03.550Z,15.10
2023-05-02T16:31:11.746Z,15.40
2023-05-02T16:36:19.039Z,15.30
2023-05-02T16:41:24.590Z,15.20
2023-05-02T16:46:32.987Z,15.10
2023-05-02T16:51:38.694Z,15.00
2023-05-02T16:56:44.580Z,14.80
2023-05-02T17:01:50.299Z,14.70
2023-05-02T17:06:56.551Z,14.60
2023-05-02T17:12:02.929Z,14.50
2023-05-02T17:17:08.666Z,14.50
2023-05-02T17:22:15.721Z,14.30
2023-05-02T17:27:21.483Z,14.30
2023-05-02T17:32:27.567Z,14.40
2023-05-02T17:37:35.053Z,14.50
2023-05-02T17:42:42.976Z,14.30
2023-05-02T17:47:50.270Z,14.30
2023-05-02T17:52:56.266Z,14.20
2023-05-02T17:58:03.001Z,14.10
2023-05-02T18:03:10.309Z,13.90
2023-05-02T18:08:16.706Z,13.90
2023-05-02T18:13:23.044Z,13.90
2023-05-02T18:18:31.050Z,13.80
2023-05-02T18:23:37.971Z,13.70
2023-05-02T18:28:45.457Z,13.70
2023-05-02T18:33:53.778Z,13.70
2023-05-02T18:39:03.562Z,13.50
2023-05-02T18:44:10.862Z,13.40
2023-05-02T18:49:18.054Z,13.40
2023-05-02T18:54:24.571Z,13.20
2023-05-02T18:59:30.898Z,13.20
2023-05-02T19:04:36.990Z,13.10
2023-05-02T19:09:43.677Z,12.90
2023-05-02T19:14:50.674Z,12.70
2023-05-02T19:19:58.234Z,12.60
2023-05-02T19:25:06.957Z,12.30
2023-05-02T19:30:14.413Z,12.00
2023-05-02T19:35:21.240Z,11.80
2023-05-02T19:40:29.073Z,11.60
2023-05-02T19:45:35.207Z,11.60
2023-05-02T19:50:41.820Z,11.60
2023-05-02T19:55:50.097Z,11.60
2023-05-02T20:00:57.696Z,11.60
2023-05-02T20:06:04.884Z,11.70
2023-05-02T20:11:12.696Z,11.80
2023-05-02T20:16:18.769Z,11.60
2023-05-02T20:21:26.924Z,11.70
2023-05-02T20:26:34.977Z,11.60
2023-05-02T20:31:41.241Z,11.80
2023-05-02T20:36:48.385Z,11.60
2023-05-02T20:41:54.802Z,11.70
2023-05-02T20:47:02.628Z,11.50
2023-05-02T20:52:12.479Z,11.50
2023-05-02T20:57:20.141Z,11.50
2023-05-02T21:02:27.268Z,11.30
2023-05-02T21:07:33.601Z,11.30
2023-05-02T21:12:39.595Z,11.00
2023-05-02T21:17:45.438Z,11.10
2023-05-02T21:22:51.703Z,11.00
2023-05-02T21:27:57.468Z,11.00
2023-05-02T21:33:04.662Z,10.80
2023-05-02T21:38:12.248Z,10.70
2023-05-02T21:43:18.269Z,10.60
2023-05-02T21:48:25.607Z,10.60
2023-05-02T21:53:31.836Z,10.60
2023-05-02T21:58:37.726Z,10.40
2023-05-02T22:03:43.496Z,10.50
2023-05-02T22:08:51.358Z,10.50
2023-05-02T22:13:56.797Z,10.40
2023-05-02T22:19:03.173Z,10.40
2023-05-02T22:24:09.437Z,10.40
2023-05-02T22:29:15.332Z,10.50
2023-05-02T22:34:21.919Z,10.50
2023-05-02T22:39:28.484Z,10.50
2023-05-02T22:44:46.808Z,10.40
2023-05-02T22:49:43.875Z,10.50
2023-05-02T22:54:50.238Z,10.60
2023-05-02T22:59:56.020Z,10.60
2023-05-02T23:05:02.731Z,10.40
2023-05-02T23:10:09.510Z,10.00
2023-05-02T23:15:15.272Z,9.80
2023-05-02T23:20:22.873Z,9.60
2023-05-02T23:25:29.537Z,9.60
2023-05-02T23:30:35.776Z,9.50
2023-05-02T23:35:42.053Z,9.60
2023-05-02T23:40:48.170Z,9.40
2023-05-02T23:45:53.914Z,9.30
2023-05-02T23:51:00.015Z,9.30
2023-05-02T23:56:06.945Z,9.00
